Time;durP1;ratioP1;P1;durP2;ratioP2;P2;SDS_P1;SDS_P2;PMS_P1;PMS_P2;Temp;Humidity;BMP_temperature;BMP_pressure;BME280_temperature;BME280_humidity;BME280_pressure;Samples;Min_cycle;Max_cycle;Signal;HPM_P1;HPM_P2
2022/07/29 00:01:31;;;;;;;7.63;2.87;;;23.40;51.50;;;;;;5033803;28;20366;-93
2022/07/29 00:04:07;;;;;;;6.40;2.67;;;23.30;51.60;;;;;;5036495;28;20219;-94
2022/07/29 00:06:37;;;;;;;9.90;3.70;;;23.30;51.70;;;;;;5035248;28;20230;-93
2022/07/29 00:09:07;;;;;;;12.23;4.13;;;23.20;51.60;;;;;;5059637;28;20241;-93
2022/07/29 00:11:35;;;;;;;6.57;2.53;;;23.30;51.90;;;;;;5054218;28;20201;-93
2022/07/29 00:14:02;;;;;;;8.53;3.43;;;23.20;51.60;;;;;;5037934;28;20256;-93
2022/07/29 00:16:31;;;;;;;12.07;3.77;;;23.20;51.70;;;;;;5035356;28;20654;-93
2022/07/29 00:19:00;;;;;;;6.17;2.53;;;23.10;51.80;;;;;;5037471;28;20262;-94
2022/07/29 00:21:27;;;;;;;6.53;2.73;;;23.10;51.90;;;;;;5039691;28;20349;-93
2022/07/29 00:23:56;;;;;;;7.77;2.87;;;23.10;51.90;;;;;;5054025;28;20208;-93
2022/07/29 00:26:25;;;;;;;8.70;3.77;;;23.10;52.00;;;;;;5052337;28;20200;-94
2022/07/29 00:28:52;;;;;;;10.17;3.93;;;23.10;52.10;;;;;;5042732;28;20208;-91
2022/07/29 00:31:22;;;;;;;8.77;3.23;;;23.10;52.00;;;;;;5033319;28;20587;-92
2022/07/29 00:33:49;;;;;;;7.83;3.27;;;23.00;52.20;;;;;;5033199;28;20933;-91
2022/07/29 00:36:20;;;;;;;7.73;3.20;;;23.00;52.10;;;;;;5033070;28;20297;-92
2022/07/29 00:38:49;;;;;;;7.03;3.27;;;22.90;52.10;;;;;;5036576;28;20581;-91
2022/07/29 00:41:18;;;;;;;9.93;3.80;;;22.90;52.30;;;;;;5032797;28;20307;-92
2022/07/29 00:43:46;;;;;;;10.43;3.80;;;22.90;52.40;;;;;;5032716;28;20214;-92
2022/07/29 00:46:13;;;;;;;12.87;5.03;;;22.80;52.30;;;;;;5031135;28;20429;-93
2022/07/29 00:48:40;;;;;;;10.40;3.57;;;22.90;52.50;;;;;;5032638;28;20204;-93
2022/07/29 00:51:10;;;;;;;7.00;3.13;;;22.80;52.40;;;;;;5032870;28;20211;-93
2022/07/29 00:53:38;;;;;;;7.70;3.30;;;22.70;52.60;;;;;;5033185;28;20198;-93
2022/07/29 00:56:06;;;;;;;7.93;3.17;;;22.70;52.70;;;;;;5033038;28;20721;-91
2022/07/29 00:58:37;;;;;;;7.70;3.17;;;22.70;52.70;;;;;;5039893;28;20209;-92
2022/07/29 01:01:04;;;;;;;18.77;5.07;;;22.70;53.00;;;;;;5049333;28;20259;-93
2022/07/29 01:03:32;;;;;;;8.77;3.50;;;22.60;52.80;;;;;;5051186;28;20256;-94
2022/07/29 01:06:00;;;;;;;8.90;3.50;;;22.60;52.80;;;;;;5047011;28;20227;-93
2022/07/29 01:08:30;;;;;;;8.57;3.27;;;22.60;52.80;;;;;;5070565;28;20671;-93
2022/07/29 01:11:01;;;;;;;10.67;3.77;;;22.60;53.00;;;;;;5057571;28;20634;-95
2022/07/29 01:13:36;;;;;;;10.10;3.93;;;22.50;53.10;;;;;;5035646;28;20642;-93
2022/07/29 01:16:12;;;;;;;10.37;3.77;;;22.50;53.20;;;;;;5031789;28;20208;-91
2022/07/29 01:18:47;;;;;;;12.80;3.20;;;22.40;53.10;;;;;;5031778;28;20251;-93
2022/07/29 01:21:28;;;;;;;7.37;3.13;;;22.40;53.20;;;;;;5037003;28;20232;-93
2022/07/29 01:24:26;;;;;;;7.93;2.73;;;22.40;53.40;;;;;;5031110;28;20235;-93
2022/07/29 01:27:00;;;;;;;5.60;2.50;;;22.40;53.50;;;;;;5031814;28;20681;-92
2022/07/29 01:29:32;;;;;;;9.33;3.23;;;22.30;53.30;;;;;;5052711;28;20204;-93
2022/07/29 01:32:04;;;;;;;12.33;4.57;;;22.30;53.40;;;;;;5043468;28;20204;-92
2022/07/29 01:34:40;;;;;;;8.33;2.83;;;22.20;53.30;;;;;;5032541;28;20661;-93
2022/07/29 01:37:20;;;;;;;6.63;2.73;;;22.20;53.50;;;;;;5033686;28;20648;-93
2022/07/29 01:39:50;;;;;;;6.47;2.50;;;22.20;53.50;;;;;;5032309;28;20736;-93
2022/07/29 01:42:40;;;;;;;10.87;4.13;;;22.10;53.40;;;;;;5032029;28;20986;-92
2022/07/29 01:45:14;;;;;;;10.20;3.00;;;22.10;53.80;;;;;;5048064;28;20208;-92
2022/07/29 01:47:45;;;;;;;5.33;2.60;;;22.10;53.80;;;;;;5037643;28;20219;-92
2022/07/29 01:50:41;;;;;;;12.60;4.30;;;22.00;54.20;;;;;;5031864;28;20211;-90
2022/07/29 01:53:10;;;;;;;7.17;3.10;;;22.00;54.10;;;;;;5049206;28;20222;-92
2022/07/29 01:55:43;;;;;;;9.43;3.43;;;21.90;53.60;;;;;;5050520;28;20209;-93
2022/07/29 01:58:13;;;;;;;8.47;3.43;;;21.90;53.80;;;;;;5048028;28;20240;-93
2022/07/29 02:00:43;;;;;;;10.20;4.13;;;21.90;53.80;;;;;;5030735;28;20197;-93
2022/07/29 02:03:12;;;;;;;6.07;2.40;;;21.80;53.80;;;;;;5032075;28;20218;-92
2022/07/29 02:05:57;;;;;;;7.77;2.80;;;21.80;53.90;;;;;;5045849;28;20224;-93
2022/07/29 02:08:26;;;;;;;7.67;2.97;;;21.80;54.20;;;;;;5031063;28;20201;-93
2022/07/29 02:10:56;;;;;;;8.60;3.17;;;21.80;54.00;;;;;;5030431;28;20232;-92
2022/07/29 02:13:26;;;;;;;12.83;3.90;;;21.80;54.10;;;;;;5030556;28;20208;-92
2022/07/29 02:15:58;;;;;;;7.23;3.30;;;21.70;54.00;;;;;;5030316;28;20553;-92
2022/07/29 02:18:42;;;;;;;5.83;2.50;;;21.70;54.20;;;;;;5031291;28;20673;-92
2022/07/29 02:21:09;;;;;;;5.77;2.63;;;21.60;54.50;;;;;;5031039;28;20232;-93
2022/07/29 02:26:41;;;;;;;9.03;3.27;;;21.60;54.70;;;;;;4948217;22;20651;-92
2022/07/29 02:29:11;;;;;;;7.30;3.20;;;21.50;54.40;;;;;;4947882;28;20645;-93
2022/07/29 02:31:43;;;;;;;7.83;2.97;;;21.50;54.40;;;;;;4949329;28;20192;-91
2022/07/29 02:34:12;;;;;;;12.03;4.03;;;21.50;54.30;;;;;;4932089;28;20293;-92
2022/07/29 02:36:42;;;;;;;12.40;4.50;;;21.50;54.50;;;;;;4929241;29;20200;-92
2022/07/29 02:39:14;;;;;;;7.60;2.90;;;21.40;54.40;;;;;;4929247;28;20270;-92
2022/07/29 02:41:47;;;;;;;11.70;4.20;;;21.40;54.70;;;;;;4930419;28;20200;-92
2022/07/29 02:44:18;;;;;;;13.57;4.47;;;21.40;54.60;;;;;;4932833;28;20726;-92
2022/07/29 02:46:54;;;;;;;10.47;3.93;;;21.40;54.70;;;;;;4929990;28;20236;-92
2022/07/29 02:49:33;;;;;;;12.03;4.33;;;21.30;54.90;;;;;;4932241;28;20214;-92
2022/07/29 02:52:04;;;;;;;9.67;3.83;;;21.30;55.00;;;;;;4930701;29;20227;-92
2022/07/29 02:54:36;;;;;;;10.60;3.27;;;21.30;55.00;;;;;;4916517;28;20205;-91
2022/07/29 02:57:10;;;;;;;10.40;3.37;;;21.30;54.90;;;;;;4934456;28;20281;-91
2022/07/29 02:59:42;;;;;;;10.67;3.57;;;21.30;55.00;;;;;;4933010;28;20235;-91
2022/07/29 03:02:13;;;;;;;11.70;4.20;;;21.20;55.00;;;;;;4949328;28;20262;-93
2022/07/29 03:04:42;;;;;;;7.57;3.00;;;21.20;55.10;;;;;;4933899;28;20251;-92
2022/07/29 03:07:14;;;;;;;7.93;2.97;;;21.20;55.10;;;;;;4987784;28;20248;-92
2022/07/29 03:09:42;;;;;;;10.37;3.60;;;21.10;55.20;;;;;;4929666;28;20208;-91
2022/07/29 03:12:12;;;;;;;9.43;3.80;;;21.10;55.30;;;;;;4928808;28;20208;-92
2022/07/29 03:14:40;;;;;;;9.30;4.07;;;21.10;55.40;;;;;;4929825;29;20571;-91
2022/07/29 03:17:12;;;;;;;9.13;3.10;;;21.10;55.40;;;;;;4928069;28;20553;-92
2022/07/29 03:19:41;;;;;;;11.10;3.70;;;21.00;55.50;;;;;;4929665;28;20675;-90
2022/07/29 03:22:27;;;;;;;10.13;3.70;;;21.00;55.40;;;;;;4929451;28;20274;-92
2022/07/29 03:24:54;;;;;;;7.47;3.30;;;21.00;55.90;;;;;;4928353;29;20664;-92
2022/07/29 03:27:21;;;;;;;10.13;4.10;;;21.00;55.40;;;;;;4927183;28;21703;-92
2022/07/29 03:29:49;;;;;;;11.90;4.40;;;20.90;55.50;;;;;;4928300;28;20275;-92
2022/07/29 03:32:18;;;;;;;11.20;4.13;;;20.90;55.60;;;;;;4968470;28;20254;-91
2022/07/29 03:34:45;;;;;;;7.47;3.33;;;20.90;55.70;;;;;;4930275;29;20607;-93
2022/07/29 03:37:12;;;;;;;9.20;4.03;;;20.80;55.60;;;;;;4931517;29;20208;-92
2022/07/29 03:39:42;;;;;;;10.10;4.30;;;20.80;55.70;;;;;;4931261;28;20227;-91
2022/07/29 03:42:31;;;;;;;9.63;3.83;;;20.80;55.90;;;;;;4951492;28;20749;-91
2022/07/29 03:45:14;;;;;;;9.80;4.03;;;20.80;56.20;;;;;;4915194;28;20232;-93
2022/07/29 03:47:46;;;;;;;6.40;2.87;;;20.70;56.20;;;;;;4929881;28;20207;-90
2022/07/29 03:50:15;;;;;;;9.60;4.03;;;20.70;56.00;;;;;;4936249;28;20635;-92
2022/07/29 03:52:43;;;;;;;8.40;3.33;;;20.70;55.90;;;;;;4949711;28;20215;-91
2022/07/29 03:55:11;;;;;;;10.17;4.17;;;20.70;56.00;;;;;;4955680;28;20200;-92
2022/07/29 03:57:40;;;;;;;6.00;2.80;;;20.60;56.10;;;;;;4952879;28;20204;-92
2022/07/29 04:00:08;;;;;;;3.60;2.27;;;20.60;56.10;;;;;;4953960;22;20220;-92
2022/07/29 04:02:36;;;;;;;4.27;2.40;;;20.60;56.10;;;;;;4951987;22;20650;-92
2022/07/29 04:05:12;;;;;;;6.87;3.10;;;20.60;56.10;;;;;;4933544;29;20254;-91
2022/07/29 04:07:54;;;;;;;8.37;2.90;;;20.60;56.40;;;;;;4936082;29;20211;-93
2022/07/29 04:10:24;;;;;;;6.13;2.87;;;20.50;56.80;;;;;;4935819;29;20228;-94
2022/07/29 04:12:51;;;;;;;7.10;3.00;;;20.50;56.40;;;;;;4936027;29;20207;-92
2022/07/29 04:15:21;;;;;;;6.27;3.23;;;20.50;56.30;;;;;;4957707;28;20641;-94
2022/07/29 04:17:48;;;;;;;23.80;8.03;;;20.50;56.80;;;;;;4942262;22;20247;-95
2022/07/29 04:20:40;;;;;;;7.50;2.47;;;20.40;56.60;;;;;;4935539;28;20607;-93
2022/07/29 04:23:07;;;;;;;7.87;2.80;;;20.30;57.20;;;;;;4936945;28;20235;-94
2022/07/29 04:25:41;;;;;;;5.63;2.67;;;20.30;56.70;;;;;;4934841;28;20266;-93
2022/07/29 04:28:10;;;;;;;7.47;3.13;;;20.30;57.10;;;;;;4935538;29;20239;-95
2022/07/29 04:30:39;;;;;;;8.23;3.43;;;20.30;57.00;;;;;;4934538;28;20299;-94
2022/07/29 04:33:08;;;;;;;9.47;3.87;;;20.30;56.90;;;;;;4934084;28;20212;-94
2022/07/29 04:35:37;;;;;;;5.53;2.60;;;20.30;57.00;;;;;;4935505;28;20254;-94
2022/07/29 04:38:11;;;;;;;7.17;2.93;;;20.20;57.00;;;;;;4934911;29;20214;-95
2022/07/29 04:43:04;;;;;;;11.93;4.47;;;20.20;57.10;;;;;;4985343;22;1210138;-94
2022/07/29 04:45:37;;;;;;;7.03;3.00;;;20.20;57.20;;;;;;4949331;28;20819;-94
2022/07/29 04:48:06;;;;;;;8.40;3.63;;;20.20;57.50;;;;;;4934844;28;20211;-94
2022/07/29 04:50:33;;;;;;;5.07;2.50;;;20.20;57.40;;;;;;4934961;28;20900;-94
2022/07/29 04:53:03;;;;;;;9.03;3.80;;;20.20;57.40;;;;;;4934707;28;20732;-95
2022/07/29 04:55:33;;;;;;;6.93;3.10;;;20.20;58.30;;;;;;4935156;28;20554;-95
2022/07/29 04:58:00;;;;;;;3.97;2.33;;;20.10;57.80;;;;;;4934928;28;20254;-94
2022/07/29 05:00:28;;;;;;;6.90;2.57;;;20.10;57.80;;;;;;4934863;28;20205;-95
2022/07/29 05:02:56;;;;;;;9.20;3.87;;;20.10;57.90;;;;;;4936051;28;20222;-93
2022/07/29 05:05:31;;;;;;;10.73;4.00;;;20.10;58.00;;;;;;4934250;29;20302;-93
2022/07/29 05:08:00;;;;;;;9.80;4.10;;;20.20;58.60;;;;;;4933993;29;20702;-93
2022/07/29 05:10:29;;;;;;;8.83;3.67;;;20.10;58.20;;;;;;4934196;29;20200;-93
2022/07/29 05:12:58;;;;;;;8.40;3.67;;;20.20;58.50;;;;;;4934081;29;20216;-92
2022/07/29 05:15:25;;;;;;;7.00;3.57;;;20.10;58.50;;;;;;4934541;29;20239;-93
2022/07/29 05:17:53;;;;;;;16.80;5.00;;;20.10;58.50;;;;;;4933794;28;20208;-93
2022/07/29 05:20:27;;;;;;;4.10;2.60;;;20.10;58.60;;;;;;4935982;28;20204;-94
2022/07/29 05:22:55;;;;;;;4.73;2.53;;;20.20;58.90;;;;;;4933201;28;20238;-94
2022/07/29 05:28:46;;;;;;;4.70;2.83;;;20.20;59.30;;;;;;4934954;28;20202;-93
2022/07/29 05:31:27;;;;;;;9.63;3.87;;;20.20;58.80;;;;;;4929728;28;20209;-94
2022/07/29 05:33:54;;;;;;;5.47;3.20;;;20.30;59.50;;;;;;4915432;29;20212;-93
2022/07/29 05:36:23;;;;;;;5.37;2.80;;;20.30;59.00;;;;;;4929372;29;20212;-93
2022/07/29 05:38:55;;;;;;;3.53;2.50;;;20.30;59.10;;;;;;4934006;29;20311;-92
2022/07/29 05:41:23;;;;;;;6.80;2.83;;;20.30;59.20;;;;;;4933100;29;20215;-93
2022/07/29 05:43:53;;;;;;;5.43;3.00;;;20.40;59.20;;;;;;4935001;29;20457;-95
2022/07/29 05:46:20;;;;;;;12.03;4.50;;;20.40;59.30;;;;;;4933855;29;20216;-94
2022/07/29 05:48:53;;;;;;;6.50;3.23;;;20.50;59.20;;;;;;4934765;28;20249;-94
2022/07/29 05:51:43;;;;;;;11.17;4.73;;;20.50;59.50;;;;;;4934076;29;20195;-95
2022/07/29 05:54:11;;;;;;;6.90;3.40;;;20.60;59.90;;;;;;4926459;28;20232;-93
2022/07/29 05:56:40;;;;;;;8.70;3.33;;;20.60;59.20;;;;;;4933121;28;20672;-94
2022/07/29 05:59:09;;;;;;;4.77;2.53;;;20.60;59.30;;;;;;4934237;28;20298;-96
2022/07/29 06:01:39;;;;;;;6.23;2.80;;;20.60;59.30;;;;;;4916344;28;20220;-94
2022/07/29 06:04:12;;;;;;;5.30;2.93;;;20.70;59.20;;;;;;4916295;29;20241;-96
2022/07/29 06:06:39;;;;;;;5.67;3.33;;;20.70;59.20;;;;;;4932140;28;20269;-94
2022/07/29 06:09:07;;;;;;;10.37;3.97;;;20.90;59.20;;;;;;4934903;28;20216;-94
2022/07/29 06:11:36;;;;;;;3.73;2.17;;;20.90;59.10;;;;;;4932701;28;20250;-96
2022/07/29 06:14:06;;;;;;;7.93;3.60;;;21.00;59.30;;;;;;4933895;29;20204;-96
2022/07/29 06:16:35;;;;;;;9.20;3.60;;;21.00;59.20;;;;;;4933037;28;20258;-95
2022/07/29 06:19:02;;;;;;;5.27;2.70;;;21.00;59.00;;;;;;4932104;28;20242;-95
2022/07/29 06:21:30;;;;;;;8.63;3.67;;;21.10;59.00;;;;;;4933411;28;20242;-95
2022/07/29 06:23:58;;;;;;;7.07;3.20;;;21.10;59.00;;;;;;4925185;29;20236;-96
2022/07/29 06:26:39;;;;;;;8.13;3.23;;;21.20;59.10;;;;;;4933393;28;20206;-96
2022/07/29 06:29:07;;;;;;;5.03;2.83;;;21.20;59.40;;;;;;4933719;29;20242;-95
2022/07/29 06:31:36;;;;;;;9.10;3.20;;;21.30;59.20;;;;;;4930043;28;20288;-95
2022/07/29 06:34:03;;;;;;;8.87;3.97;;;21.40;59.30;;;;;;4913816;29;20213;-95
2022/07/29 06:36:30;;;;;;;9.37;4.27;;;21.40;59.10;;;;;;4914823;28;20213;-94
2022/07/29 06:38:57;;;;;;;8.37;3.70;;;21.40;59.20;;;;;;4929619;28;20212;-96
2022/07/29 06:41:25;;;;;;;10.50;4.90;;;21.50;59.30;;;;;;4928892;28;20244;-95
2022/07/29 06:43:52;;;;;;;11.53;3.43;;;21.50;59.30;;;;;;4929065;28;20599;-94
2022/07/29 06:46:21;;;;;;;13.90;5.83;;;21.60;59.30;;;;;;4933037;28;20205;-94
2022/07/29 06:48:53;;;;;;;9.23;4.10;;;21.70;59.40;;;;;;4940047;28;20206;-95
2022/07/29 06:51:23;;;;;;;8.60;4.03;;;21.70;59.40;;;;;;4939394;28;20267;-95
2022/07/29 06:53:52;;;;;;;8.30;3.70;;;21.80;59.30;;;;;;4932947;28;20231;-94
2022/07/29 06:56:24;;;;;;;13.50;5.10;;;21.80;59.10;;;;;;4938916;28;20265;-95
2022/07/29 07:05:14;;;;;;;9.40;3.17;;;22.00;59.00;;;;;;4944909;29;20231;-96
2022/07/29 07:07:57;;;;;;;9.57;3.40;;;22.10;58.90;;;;;;4948017;29;20212;-96
2022/07/29 07:10:38;;;;;;;9.83;3.50;;;22.20;59.00;;;;;;4939329;29;20263;-96
2022/07/29 07:13:09;;;;;;;5.20;2.80;;;22.20;58.80;;;;;;4943999;29;20206;-96
2022/07/29 07:15:39;;;;;;;5.57;2.97;;;22.30;58.70;;;;;;4944548;28;20215;-96
2022/07/29 07:18:13;;;;;;;6.50;3.33;;;22.30;58.60;;;;;;4945678;28;20214;-96
2022/07/29 07:20:43;;;;;;;6.73;3.57;;;22.40;58.80;;;;;;4949121;29;20199;-96
2022/07/29 07:23:18;;;;;;;12.30;3.93;;;22.40;58.80;;;;;;4947634;28;20209;-96
2022/07/29 07:25:46;;;;;;;6.93;3.43;;;22.60;58.80;;;;;;4946439;29;20278;-96
2022/07/29 07:28:20;;;;;;;11.00;4.10;;;22.60;58.50;;;;;;4959755;29;20309;-96
2022/07/29 07:34:11;;;;;;;7.93;2.70;;;22.70;58.80;;;;;;5045105;28;20184;-96
2022/07/29 07:36:40;;;;;;;6.00;3.20;;;22.80;58.60;;;;;;5044090;28;20264;-96
2022/07/29 07:39:08;;;;;;;10.73;4.63;;;22.80;58.60;;;;;;5037649;28;20203;-96
2022/07/29 07:41:43;;;;;;;8.67;3.63;;;22.90;58.50;;;;;;4995180;28;20206;-96
2022/07/29 07:44:11;;;;;;;8.97;3.40;;;22.90;58.40;;;;;;4945425;29;20239;-96
2022/07/29 07:46:53;;;;;;;8.53;4.23;;;23.00;59.10;;;;;;4931888;28;20205;-96
2022/07/29 07:49:44;;;;;;;8.27;3.27;;;23.00;58.60;;;;;;4925158;28;20205;-96
2022/07/29 07:52:13;;;;;;;13.33;4.67;;;23.10;58.60;;;;;;4918693;29;20834;-95
2022/07/29 08:00:19;;;;;;;16.30;4.43;;;23.40;58.50;;;;;;4940445;28;20290;-96
2022/07/29 08:02:54;;;;;;;8.50;3.93;;;23.40;58.40;;;;;;4940529;28;20231;-96
2022/07/29 08:08:12;;;;;;;5.67;3.20;;;23.60;58.40;;;;;;4942588;28;20219;-96
2022/07/29 08:20:32;;;;;;;13.50;5.27;;;23.90;57.90;;;;;;5095184;28;20205;-96
2022/07/29 08:23:08;;;;;;;9.40;3.87;;;24.00;57.90;;;;;;5074403;28;20211;-96
2022/07/29 08:25:54;;;;;;;9.20;3.83;;;24.10;57.80;;;;;;5055756;28;20222;-96
2022/07/29 08:28:44;;;;;;;6.77;3.17;;;24.10;57.50;;;;;;5078123;28;20206;-96
2022/07/29 08:31:19;;;;;;;3.80;1.93;;;24.20;57.30;;;;;;5086029;28;20199;-96
2022/07/29 08:37:31;;;;;;;6.93;3.47;;;24.40;57.40;;;;;;5053917;28;20192;-96
2022/07/29 08:42:34;;;;;;;5.17;2.90;;;24.60;57.10;;;;;;5067922;23;20239;-96
2022/07/29 08:45:26;;;;;;;5.20;2.70;;;24.70;57.30;;;;;;5037089;28;20217;-96
2022/07/29 08:51:27;;;;;;;4.63;2.53;;;24.80;56.60;;;;;;5017384;28;20200;-96
2022/07/29 08:53:56;;;;;;;6.77;2.97;;;24.90;56.80;;;;;;5008949;28;20209;-94
2022/07/29 08:56:25;;;;;;;6.77;3.47;;;25.00;56.70;;;;;;5008627;28;20230;-95
2022/07/29 08:58:53;;;;;;;6.07;2.93;;;25.20;56.80;;;;;;5008524;28;20729;-96
2022/07/29 09:01:27;;;;;;;7.27;3.03;;;25.40;56.10;;;;;;5010127;28;20209;-93
2022/07/29 09:03:57;;;;;;;7.33;3.50;;;25.50;55.30;;;;;;4989682;28;20206;-95
2022/07/29 09:06:27;;;;;;;5.77;2.83;;;25.70;55.40;;;;;;4989519;28;20352;-93
2022/07/29 09:09:00;;;;;;;5.60;2.73;;;25.90;55.30;;;;;;4987601;28;20210;-95
2022/07/29 09:11:29;;;;;;;5.80;3.03;;;26.10;54.80;;;;;;5004914;28;20662;-93
2022/07/29 09:13:56;;;;;;;9.60;3.93;;;26.30;54.70;;;;;;5007919;28;20694;-95
2022/07/29 09:16:25;;;;;;;6.60;3.17;;;26.50;54.50;;;;;;5007660;28;20225;-94
2022/07/29 09:18:53;;;;;;;8.10;3.53;;;26.70;54.10;;;;;;5009039;28;20293;-92
2022/07/29 09:24:09;;;;;;;7.77;3.70;;;27.10;53.40;;;;;;5008178;28;20193;-96
2022/07/29 09:26:42;;;;;;;5.33;2.43;;;27.30;52.30;;;;;;5003474;28;20221;-95
2022/07/29 09:29:14;;;;;;;9.50;4.40;;;27.50;52.20;;;;;;4993379;28;20655;-95
2022/07/29 09:31:44;;;;;;;7.47;2.90;;;27.70;51.70;;;;;;5012313;28;20267;-95
2022/07/29 09:34:22;;;;;;;6.00;3.03;;;27.90;51.90;;;;;;5018191;28;20275;-95
2022/07/29 09:36:52;;;;;;;7.63;2.67;;;28.10;50.30;;;;;;5015709;28;20225;-95
2022/07/29 09:39:30;;;;;;;5.83;3.23;;;28.20;51.10;;;;;;5009921;28;20733;-96
2022/07/29 09:42:02;;;;;;;5.73;2.73;;;28.40;51.10;;;;;;4995034;28;20592;-96
2022/07/29 09:44:42;;;;;;;5.37;2.87;;;28.50;50.90;;;;;;4995279;28;20202;-95
2022/07/29 09:47:11;;;;;;;6.17;3.23;;;28.70;49.90;;;;;;4994080;28;20590;-96
2022/07/29 09:49:54;;;;;;;9.67;3.53;;;28.80;50.60;;;;;;4994468;28;20288;-96
2022/07/29 09:52:48;;;;;;;6.60;3.03;;;28.90;49.50;;;;;;4994340;28;20555;-94
2022/07/29 09:55:18;;;;;;;6.00;3.13;;;29.10;49.10;;;;;;4992699;28;20225;-95
2022/07/29 09:57:45;;;;;;;5.07;2.83;;;29.20;49.80;;;;;;4994025;28;20268;-94
2022/07/29 10:00:18;;;;;;;8.10;3.40;;;29.30;49.60;;;;;;4996397;28;20194;-96
2022/07/29 10:02:47;;;;;;;5.73;2.93;;;29.40;49.20;;;;;;4993494;28;20233;-94
2022/07/29 10:05:22;;;;;;;6.47;2.57;;;29.50;49.30;;;;;;4995286;28;20260;-94
2022/07/29 10:07:51;;;;;;;4.77;2.10;;;29.60;48.40;;;;;;4993049;28;20207;-96
2022/07/29 10:10:25;;;;;;;5.10;2.53;;;29.70;49.10;;;;;;4993446;28;20258;-96
2022/07/29 10:12:55;;;;;;;4.07;1.97;;;29.80;48.40;;;;;;4994428;28;20677;-96
2022/07/29 10:15:26;;;;;;;6.43;2.90;;;29.90;48.20;;;;;;4976025;28;20230;-96
2022/07/29 10:17:56;;;;;;;5.50;2.37;;;30.00;48.00;;;;;;4975528;28;20225;-96
2022/07/29 10:23:14;;;;;;;12.40;5.13;;;30.20;46.40;;;;;;4989917;28;20206;-96
2022/07/29 10:25:58;;;;;;;7.50;3.00;;;30.30;47.20;;;;;;5013352;28;20216;-96
2022/07/29 10:28:41;;;;;;;5.47;2.30;;;30.30;45.80;;;;;;5015022;28;20693;-95
2022/07/29 10:31:21;;;;;;;7.40;2.40;;;30.50;46.10;;;;;;5014603;28;20216;-96
2022/07/29 10:33:58;;;;;;;11.40;3.70;;;30.50;46.50;;;;;;5013954;28;20210;-96
2022/07/29 10:36:43;;;;;;;5.20;2.10;;;30.60;45.90;;;;;;5015831;28;20225;-96
2022/07/29 10:39:20;;;;;;;7.27;3.13;;;30.70;45.40;;;;;;4998027;28;20210;-94
2022/07/29 10:42:23;;;;;;;10.98;3.40;;;30.70;45.20;;;;;;4998816;28;20217;-95
2022/07/29 10:47:45;;;;;;;5.85;2.55;;;30.90;45.70;;;;;;5029618;22;20236;-94
2022/07/29 10:50:14;;;;;;;12.70;5.63;;;31.00;45.60;;;;;;5015488;28;20205;-95
2022/07/29 10:52:59;;;;;;;5.63;2.25;;;31.10;45.20;;;;;;5016023;28;20274;-96
2022/07/29 10:55:44;;;;;;;7.47;3.80;;;31.10;44.80;;;;;;5013719;28;20236;-95
2022/07/29 10:58:19;;;;;;;7.80;2.75;;;31.20;44.30;;;;;;5012064;28;20209;-96
2022/07/29 11:00:47;;;;;;;6.30;3.03;;;31.40;44.20;;;;;;5011115;28;20979;-94
2022/07/29 11:03:50;;;;;;;12.77;4.03;;;31.30;43.30;;;;;;5012072;28;20293;-93
2022/07/29 11:06:17;;;;;;;7.55;3.03;;;31.50;42.70;;;;;;4975374;23;20236;-95
2022/07/29 11:08:46;;;;;;;4.00;1.98;;;31.40;43.30;;;;;;5012756;28;20213;-95
2022/07/29 11:11:40;;;;;;;4.18;1.90;;;31.50;42.30;;;;;;5014161;28;20577;-95
2022/07/29 11:14:09;;;;;;;5.43;2.63;;;31.50;42.50;;;;;;5013840;28;20252;-94
2022/07/29 11:17:04;;;;;;;6.55;3.15;;;31.40;43.50;;;;;;5012604;28;20287;-94
2022/07/29 11:19:35;;;;;;;8.73;3.85;;;31.50;43.30;;;;;;5013088;28;20980;-95
2022/07/29 11:22:03;;;;;;;7.88;3.50;;;31.50;43.50;;;;;;5022429;28;20216;-94
2022/07/29 11:24:33;;;;;;;6.75;3.13;;;31.50;43.00;;;;;;5017107;28;20237;-94
2022/07/29 11:27:16;;;;;;;4.60;2.40;;;31.60;42.70;;;;;;5014426;28;20208;-95
2022/07/29 11:29:53;;;;;;;7.70;2.30;;;31.60;42.00;;;;;;5011529;28;20217;-94
2022/07/29 11:32:23;;;;;;;4.72;2.92;;;31.70;43.20;;;;;;5013492;28;20197;-94
2022/07/29 11:35:13;;;;;;;8.90;4.03;;;31.70;42.60;;;;;;5006496;28;20248;-92
2022/07/29 11:37:44;;;;;;;6.38;2.60;;;31.70;42.80;;;;;;5011250;28;20267;-95
2022/07/29 11:40:16;;;;;;;6.93;3.13;;;31.90;42.20;;;;;;5013935;28;20193;-95
2022/07/29 11:43:01;;;;;;;8.93;3.30;;;31.90;42.30;;;;;;5013794;28;20308;-95
2022/07/29 11:45:47;;;;;;;5.93;3.15;;;32.00;41.80;;;;;;5005400;28;20206;-96
2022/07/29 11:48:19;;;;;;;7.82;2.85;;;32.10;41.60;;;;;;4998886;28;20236;-96
2022/07/29 11:50:46;;;;;;;6.20;2.83;;;32.20;41.70;;;;;;5000144;28;20240;-95
2022/07/29 11:53:16;;;;;;;5.75;2.90;;;32.30;42.10;;;;;;5014925;28;20212;-96
2022/07/29 11:55:48;;;;;;;4.68;2.50;;;32.30;41.20;;;;;;5019339;28;20229;-96
2022/07/29 11:58:18;;;;;;;6.13;3.33;;;32.40;41.80;;;;;;5015180;28;20189;-94
2022/07/29 12:00:48;;;;;;;8.48;3.75;;;32.50;42.30;;;;;;5003373;28;20619;-94
2022/07/29 12:03:52;;;;;;;11.75;4.40;;;32.60;41.90;;;;;;4987949;28;20229;-96
2022/07/29 12:06:19;;;;;;;9.32;4.25;;;32.70;40.20;;;;;;5002210;28;20216;-95
2022/07/29 12:08:46;;;;;;;9.75;3.63;;;32.80;41.50;;;;;;5010838;28;20206;-96
2022/07/29 12:11:24;;;;;;;8.27;3.67;;;32.90;41.40;;;;;;5011785;28;20208;-96
2022/07/29 12:13:57;;;;;;;6.78;3.28;;;33.00;40.80;;;;;;4998779;28;20201;-96
2022/07/29 12:19:21;;;;;;;9.13;4.65;;;33.20;40.00;;;;;;5021311;28;20216;-96
2022/07/29 12:21:50;;;;;;;5.38;2.78;;;33.30;40.40;;;;;;5024486;28;20209;-94
2022/07/29 12:24:24;;;;;;;8.07;3.97;;;33.40;40.20;;;;;;5030337;28;20813;-93
2022/07/29 12:26:53;;;;;;;22.75;6.55;;;33.40;39.60;;;;;;5031334;28;20205;-92
2022/07/29 12:29:29;;;;;;;8.57;4.47;;;33.50;41.80;;;;;;5021333;28;20197;-93
2022/07/29 12:31:58;;;;;;;6.63;3.60;;;33.50;42.30;;;;;;5011018;28;20600;-92
2022/07/29 12:34:31;;;;;;;8.38;2.92;;;33.70;41.20;;;;;;5020369;28;20224;-95
2022/07/29 12:37:09;;;;;;;6.18;3.40;;;33.70;40.90;;;;;;5033324;28;20302;-93
2022/07/29 12:39:53;;;;;;;6.57;2.97;;;33.70;40.40;;;;;;5033188;28;20204;-94
2022/07/29 12:42:31;;;;;;;;;;;;;;;;;;;;;
2022/07/29 12:45:00;;;;;;;5.97;3.45;;;33.70;40.30;;;;;;5013719;28;20212;-94
2022/07/29 12:50:19;;;;;;;5.70;3.13;;;33.80;39.30;;;;;;5069513;22;20248;-94
2022/07/29 12:52:53;;;;;;;6.97;3.90;;;33.80;38.80;;;;;;5035241;28;20442;-95
2022/07/29 12:58:04;;;;;;;7.22;3.53;;;33.90;38.60;;;;;;5135033;22;20252;-93
2022/07/29 13:03:51;;;;;;;10.02;3.60;;;34.00;38.90;;;;;;5047822;23;20296;-94
2022/07/29 13:06:59;;;;;;;9.43;4.47;;;34.00;38.80;;;;;;5030041;28;20714;-94
2022/07/29 13:09:37;;;;;;;9.02;2.67;;;34.10;37.90;;;;;;4975376;28;20366;-95
2022/07/29 13:12:48;;;;;;;6.25;2.58;;;34.20;38.50;;;;;;5016448;28;20217;-95
2022/07/29 13:15:17;;;;;;;8.38;4.40;;;34.20;38.00;;;;;;5017644;28;20201;-96
2022/07/29 13:18:24;;;;;;;5.95;3.10;;;34.20;38.50;;;;;;5040421;28;20224;-95
2022/07/29 13:20:51;;;;;;;8.65;4.18;;;34.30;37.50;;;;;;5039189;28;20208;-94
2022/07/29 13:23:21;;;;;;;5.05;2.97;;;34.40;38.50;;;;;;5039073;28;20205;-95
2022/07/29 13:25:50;;;;;;;4.82;2.75;;;34.40;37.80;;;;;;5040353;28;20201;-95
2022/07/29 13:28:17;;;;;;;5.43;3.10;;;34.50;38.10;;;;;;5039315;22;20277;-93
2022/07/29 13:30:49;;;;;;;7.88;3.83;;;34.50;38.10;;;;;;5003254;28;20210;-95
2022/07/29 13:33:16;;;;;;;9.35;4.28;;;34.60;37.70;;;;;;5000133;28;20206;-95
2022/07/29 13:35:47;;;;;;;8.23;4.03;;;34.60;37.90;;;;;;4999761;28;20217;-95
2022/07/29 13:47:19;;;;;;;5.40;2.85;;;34.80;37.30;;;;;;5034160;22;20284;-95
2022/07/29 13:49:47;;;;;;;7.05;3.80;;;34.90;37.60;;;;;;5033691;28;20404;-92
2022/07/29 13:52:42;;;;;;;10.52;5.53;;;34.90;37.90;;;;;;5034671;22;20237;-93
2022/07/29 13:58:22;;;;;;;8.10;3.70;;;34.90;37.30;;;;;;4988360;28;20265;-95
2022/07/29 14:03:55;;;;;;;6.47;3.63;;;34.80;37.80;;;;;;5008904;23;20268;-95
2022/07/29 14:06:24;;;;;;;12.82;4.25;;;34.70;37.10;;;;;;5037296;28;20362;-95
2022/07/29 14:08:52;;;;;;;5.07;2.97;;;34.70;37.40;;;;;;5037495;28;20577;-96
2022/07/29 14:14:16;;;;;;;5.28;2.53;;;34.60;37.30;;;;;;5033717;28;20228;-95
2022/07/29 14:16:46;;;;;;;5.80;2.78;;;34.60;37.70;;;;;;5038969;28;20294;-94
2022/07/29 14:19:31;;;;;;;8.55;4.45;;;34.60;37.70;;;;;;5038265;28;20201;-96
2022/07/29 14:22:01;;;;;;;6.13;3.45;;;34.50;37.70;;;;;;5032057;28;20223;-96
2022/07/29 14:24:28;;;;;;;10.40;3.10;;;34.50;37.90;;;;;;5038564;28;20219;-96
2022/07/29 14:26:56;;;;;;;8.43;3.15;;;34.50;38.70;;;;;;5037198;28;20215;-95
2022/07/29 14:29:32;;;;;;;8.05;3.38;;;34.40;37.80;;;;;;5035099;28;20279;-95
2022/07/29 14:32:01;;;;;;;8.85;4.50;;;34.40;38.00;;;;;;5038408;28;20219;-95
2022/07/29 14:34:31;;;;;;;5.50;3.50;;;34.40;37.90;;;;;;5038248;28;20225;-95
2022/07/29 14:39:47;;;;;;;5.95;3.03;;;34.30;37.90;;;;;;5007485;28;20304;-95
2022/07/29 14:42:14;;;;;;;7.82;3.63;;;34.20;38.00;;;;;;5034756;28;20303;-95